Time;durP1;ratioP1;P1;durP2;ratioP2;P2;SDS_P1;SDS_P2;PMS_P1;PMS_P2;Temp;Humidity;BMP_temperature;BMP_pressure;BME280_temperature;BME280_humidity;BME280_pressure;Samples;Min_cycle;Max_cycle;Signal;HPM_P1;HPM_P2
2021/05/14 00:00:42;;;;;;;4.03;1.17;;;;;;;10.48;86.49;154051.03;5090009;28;20484;-88
2021/05/14 00:03:17;;;;;;;1.77;1.47;;;;;;;10.46;82.94;154044.56;5054981;28;20525;-88
2021/05/14 00:05:52;;;;;;;1.83;1.50;;;;;;;10.42;85.46;154035.47;5069095;28;20454;-88
2021/05/14 00:08:27;;;;;;;3.80;1.43;;;;;;;10.34;84.79;154016.06;5057128;28;20977;-87
2021/05/14 00:11:02;;;;;;;1.60;1.40;;;;;;;10.36;86.13;154021.22;5074434;28;20536;-88
2021/05/14 00:13:38;;;;;;;1.43;1.23;;;;;;;10.34;86.75;154016.06;5059500;28;20947;-88
2021/05/14 00:16:13;;;;;;;1.70;1.33;;;;;;;10.31;82.45;154007.00;5073274;28;20433;-87
2021/05/14 00:18:48;;;;;;;4.50;1.80;;;;;;;10.34;86.02;154016.06;5065650;28;20459;-87
2021/05/14 00:21:23;;;;;;;3.13;1.60;;;;;;;10.29;84.75;154003.13;5070676;28;20457;-87
2021/05/14 00:23:59;;;;;;;4.83;1.70;;;;;;;10.26;85.48;153995.34;5069365;28;20805;-86
2021/05/14 00:26:34;;;;;;;1.90;1.40;;;;;;;10.24;83.65;153988.88;5058932;28;20462;-86
2021/05/14 00:29:10;;;;;;;2.00;1.27;;;;;;;10.25;83.14;153991.44;5072082;28;20469;-86
2021/05/14 00:31:45;;;;;;;1.60;1.40;;;;;;;10.19;84.70;153975.94;5066610;28;20450;-88
2021/05/14 00:34:20;;;;;;;1.60;1.50;;;;;;;10.22;86.40;153984.97;5072096;28;20448;-87
2021/05/14 00:36:55;;;;;;;1.50;1.20;;;;;;;10.23;88.20;153986.28;5072414;28;20448;-87
2021/05/14 00:39:30;;;;;;;3.70;1.40;;;;;;;10.24;86.76;153990.19;5072453;28;20995;-87
2021/05/14 00:42:06;;;;;;;1.83;1.47;;;;;;;10.23;85.20;153986.28;5050552;28;20454;-88
2021/05/14 00:44:45;;;;;;;2.50;1.50;;;;;;;10.21;84.14;153981.09;5072491;28;20437;-87
2021/05/14 00:47:20;;;;;;;1.83;1.33;;;;;;;10.18;83.98;153973.34;5071631;28;20452;-87
2021/05/14 00:49:55;;;;;;;2.03;1.83;;;;;;;10.26;84.72;153994.03;5072541;28;20541;-86
2021/05/14 00:52:33;;;;;;;1.30;1.20;;;;;;;10.29;86.12;154001.81;5057616;28;20811;-87
2021/05/14 00:55:09;;;;;;;1.40;1.10;;;;;;;10.31;85.91;154007.00;5079035;28;20930;-86
2021/05/14 00:57:44;;;;;;;1.47;1.20;;;;;;;10.28;83.98;154000.50;5073680;28;20438;-86
2021/05/14 01:00:21;;;;;;;1.67;1.50;;;;;;;10.24;83.69;153988.88;5089141;28;20467;-87
2021/05/14 01:02:56;;;;;;;1.93;1.73;;;;;;;10.24;84.24;153990.19;5073522;28;20428;-87
2021/05/14 01:05:31;;;;;;;1.30;1.10;;;;;;;10.17;84.97;153972.03;5089540;28;20444;-87
2021/05/14 01:08:06;;;;;;;2.17;1.70;;;;;;;10.17;86.50;153970.72;5056781;28;20804;-87
2021/05/14 01:10:42;;;;;;;1.60;1.23;;;;;;;10.15;84.43;153966.88;5072436;28;20458;-87
2021/05/14 01:13:24;;;;;;;1.27;1.17;;;;;;;10.14;86.19;153963.00;5072728;28;20944;-87
2021/05/14 01:16:00;;;;;;;1.57;1.47;;;;;;;10.09;84.08;153951.25;5072318;28;20931;-87
2021/05/14 01:18:35;;;;;;;1.67;1.13;;;;;;;10.05;85.33;153940.94;5062586;28;20519;-87
2021/05/14 01:21:11;;;;;;;2.33;1.47;;;;;;;10.06;85.18;153942.25;5053598;28;20458;-86
2021/05/14 01:23:46;;;;;;;3.10;1.70;;;;;;;10.02;83.64;153933.16;5068813;28;20445;-86
2021/05/14 01:26:22;;;;;;;1.93;1.67;;;;;;;10.02;83.39;153933.16;5070170;28;20458;-85
2021/05/14 01:28:58;;;;;;;1.50;1.27;;;;;;;9.98;85.53;153922.78;5085385;28;20465;-86
2021/05/14 01:31:33;;;;;;;1.80;1.23;;;;;;;9.94;85.95;153911.16;5076731;28;20430;-86
2021/05/14 01:34:08;;;;;;;2.13;1.47;;;;;;;9.92;84.60;153906.00;5076386;28;20464;-86
2021/05/14 01:36:44;;;;;;;1.73;1.53;;;;;;;9.93;86.64;153908.59;5076139;28;20440;-87
2021/05/14 01:39:23;;;;;;;2.23;1.37;;;;;;;9.95;85.92;153915.06;5075408;28;20530;-87
2021/05/14 01:41:59;;;;;;;2.57;1.50;;;;;;;9.88;85.83;153895.59;5076093;28;20483;-87
2021/05/14 01:44:34;;;;;;;1.40;1.30;;;;;;;9.89;86.40;153898.22;5077313;28;20435;-87
2021/05/14 01:47:09;;;;;;;2.00;1.43;;;;;;;9.84;83.87;153885.28;5075409;28;20443;-86
2021/05/14 01:49:44;;;;;;;2.37;1.10;;;;;;;9.77;86.52;153869.75;5056009;28;20875;-87
2021/05/14 01:52:21;;;;;;;1.43;1.23;;;;;;;9.80;86.25;153877.50;5055832;28;20922;-87
2021/05/14 01:54:56;;;;;;;2.23;1.80;;;;;;;9.78;86.79;153872.34;5060817;28;20467;-86
2021/05/14 01:57:31;;;;;;;2.30;1.50;;;;;;;9.73;87.66;153859.41;5077092;28;20477;-86
2021/05/14 02:00:09;;;;;;;2.03;1.27;;;;;;;9.66;86.18;153841.25;5075620;28;20478;-86
2021/05/14 02:02:46;;;;;;;1.33;1.00;;;;;;;9.65;86.48;153837.41;5075754;28;20428;-87
2021/05/14 02:05:21;;;;;;;1.53;1.43;;;;;;;9.59;86.83;153823.16;5075243;28;20988;-86
2021/05/14 02:07:57;;;;;;;2.17;1.30;;;;;;;9.58;85.91;153819.31;5055608;28;20463;-86
2021/05/14 02:10:32;;;;;;;2.67;1.60;;;;;;;9.51;87.84;153801.16;5055294;28;20451;-87
2021/05/14 02:13:08;;;;;;;2.23;1.77;;;;;;;9.47;87.11;153792.13;5056692;28;20416;-86
2021/05/14 02:15:43;;;;;;;1.87;1.57;;;;;;;9.43;88.64;153781.75;5072880;28;20449;-86
2021/05/14 02:18:18;;;;;;;2.00;1.47;;;;;;;9.39;88.07;153771.44;5075401;28;20443;-86
2021/05/14 02:20:54;;;;;;;1.40;1.20;;;;;;;9.35;88.24;153761.06;5075118;28;20934;-86
2021/05/14 02:23:30;;;;;;;1.53;1.43;;;;;;;9.32;88.64;153752.03;5076030;28;20515;-86
2021/05/14 02:26:06;;;;;;;2.47;1.70;;;;;;;9.31;88.88;153749.44;5075125;28;21039;-86
2021/05/14 02:28:41;;;;;;;1.40;1.27;;;;;;;9.27;91.18;153740.38;5075382;28;20479;-86
2021/05/14 02:31:16;;;;;;;1.90;1.67;;;;;;;9.24;88.87;153732.59;5074674;28;20454;-86
2021/05/14 02:33:52;;;;;;;2.60;1.60;;;;;;;9.23;88.77;153730.03;5075304;28;20447;-87
2021/05/14 02:36:27;;;;;;;3.17;1.33;;;;;;;9.25;89.38;153735.22;5075219;28;20470;-86
2021/05/14 02:39:04;;;;;;;4.60;1.60;;;;;;;9.24;89.06;153732.59;5076745;28;20414;-86
2021/05/14 02:41:39;;;;;;;1.70;1.60;;;;;;;9.22;88.08;153726.13;5074592;28;20809;-86
2021/05/14 02:44:14;;;;;;;1.60;1.50;;;;;;;9.21;90.94;153723.59;5059560;28;20956;-86
2021/05/14 02:46:49;;;;;;;2.10;1.90;;;;;;;9.19;90.59;153720.97;5056180;28;20420;-86
2021/05/14 02:49:24;;;;;;;1.60;1.50;;;;;;;9.16;88.40;153711.91;5056102;28;20483;-86
2021/05/14 02:51:59;;;;;;;2.10;1.40;;;;;;;9.17;88.54;153714.50;5054544;28;20447;-86
2021/05/14 02:54:36;;;;;;;3.90;1.77;;;;;;;9.16;89.32;153711.91;5056265;28;20683;-86
2021/05/14 02:57:12;;;;;;;2.03;1.83;;;;;;;9.16;90.07;153711.91;5057665;28;20447;-86
2021/05/14 02:59:47;;;;;;;2.80;1.60;;;;;;;9.14;88.82;153706.75;5074465;28;20584;-86
2021/05/14 03:02:22;;;;;;;2.50;1.63;;;;;;;9.12;89.70;153701.59;5075377;28;20885;-86
2021/05/14 03:04:57;;;;;;;1.37;1.27;;;;;;;9.16;90.67;153711.91;5046391;28;20910;-86
2021/05/14 03:07:32;;;;;;;2.40;1.70;;;;;;;9.14;90.10;153706.75;5054253;28;20779;-86
2021/05/14 03:10:09;;;;;;;2.13;1.60;;;;;;;9.14;90.47;153708.03;5038716;28;20822;-86
2021/05/14 03:12:44;;;;;;;2.20;1.90;;;;;;;9.12;90.48;153702.88;5065168;28;20455;-86
2021/05/14 03:15:20;;;;;;;2.40;1.13;;;;;;;9.12;90.52;153701.59;5074972;28;20443;-86
2021/05/14 03:17:55;;;;;;;1.97;1.50;;;;;;;9.14;90.04;153706.75;5055898;28;20423;-86
2021/05/14 03:20:30;;;;;;;1.70;1.53;;;;;;;9.12;90.03;153702.88;5054328;28;20461;-86
2021/05/14 03:23:05;;;;;;;4.47;1.60;;;;;;;9.08;90.63;153691.25;5067505;28;20434;-86
2021/05/14 03:25:41;;;;;;;2.07;1.63;;;;;;;9.07;90.95;153689.97;5076013;28;20439;-86
2021/05/14 03:28:16;;;;;;;1.60;1.50;;;;;;;9.05;89.68;153683.50;5074175;28;20936;-86
2021/05/14 03:30:52;;;;;;;2.20;1.80;;;;;;;9.00;90.43;153670.56;5073464;28;20454;-85
2021/05/14 03:33:27;;;;;;;1.80;1.50;;;;;;;8.99;92.25;153667.97;5075617;28;20423;-86
2021/05/14 03:36:03;;;;;;;1.63;1.40;;;;;;;8.96;90.22;153660.19;5074289;28;20442;-86
2021/05/14 03:38:38;;;;;;;3.30;2.00;;;;;;;8.94;91.07;153655.03;5074986;28;20839;-86
2021/05/14 03:44:03;;;;;;;2.10;1.67;;;;;;;8.93;90.89;153652.44;5074337;28;20885;-85
2021/05/14 03:46:39;;;;;;;1.47;1.37;;;;;;;8.91;91.04;153647.28;5073889;28;20819;-85
2021/05/14 03:49:14;;;;;;;1.60;1.50;;;;;;;8.92;92.48;153649.88;5073679;28;20988;-86
2021/05/14 03:51:49;;;;;;;2.33;1.80;;;;;;;8.90;91.51;153644.66;5053575;28;20443;-86
2021/05/14 03:54:24;;;;;;;1.87;1.70;;;;;;;8.87;90.58;153636.94;5054111;28;20458;-85
2021/05/14 03:57:01;;;;;;;1.67;1.40;;;;;;;8.85;90.93;153631.75;5053332;28;20439;-85
2021/05/14 03:59:38;;;;;;;2.00;1.80;;;;;;;8.76;90.45;153609.81;5053523;28;20471;-85
2021/05/14 04:02:13;;;;;;;1.67;1.57;;;;;;;8.74;91.27;153603.28;5072835;28;20932;-85
2021/05/14 04:04:48;;;;;;;2.40;1.70;;;;;;;8.70;89.63;153594.28;5073380;28;20438;-85
2021/05/14 04:07:23;;;;;;;2.33;1.70;;;;;;;8.73;90.85;153600.72;5061293;28;20450;-85
2021/05/14 04:10:06;;;;;;;2.37;2.00;;;;;;;8.66;89.85;153582.66;5080892;28;20473;-85
2021/05/14 04:15:35;;;;;;;2.00;1.80;;;;;;;8.54;92.12;153552.91;5073128;28;20446;-86
2021/05/14 04:18:10;;;;;;;1.77;1.60;;;;;;;8.52;93.66;153549.00;5072696;28;20446;-85
2021/05/14 04:20:45;;;;;;;1.87;1.60;;;;;;;8.48;90.50;153537.38;5073653;28;20827;-85
2021/05/14 04:23:20;;;;;;;6.13;2.07;;;;;;;8.51;91.90;153546.44;5072671;28;20457;-86
2021/05/14 04:25:56;;;;;;;2.43;1.63;;;;;;;8.53;91.74;153551.59;5073994;28;20774;-85
2021/05/14 04:28:32;;;;;;;2.20;2.00;;;;;;;8.49;90.76;153539.97;5064741;28;20811;-85
2021/05/14 04:31:07;;;;;;;1.93;1.50;;;;;;;8.52;91.69;153547.75;5052958;28;20542;-85
2021/05/14 04:33:42;;;;;;;3.17;2.50;;;;;;;8.54;90.26;153554.19;5053190;28;20435;-85
2021/05/14 04:36:18;;;;;;;2.43;1.50;;;;;;;8.53;91.03;153551.59;5052307;28;20534;-85
2021/05/14 04:38:53;;;;;;;2.53;2.00;;;;;;;8.57;89.90;153561.97;5044871;28;20477;-85
2021/05/14 04:41:28;;;;;;;2.50;1.60;;;;;;;8.64;90.70;153578.75;5072740;28;20550;-85
2021/05/14 04:44:05;;;;;;;2.10;1.70;;;;;;;8.80;90.68;153618.81;5073645;28;20509;-85
2021/05/14 04:46:40;;;;;;;1.90;1.60;;;;;;;9.03;90.36;153678.28;5073833;28;20418;-85
2021/05/14 04:49:15;;;;;;;2.27;1.90;;;;;;;9.31;88.20;153750.75;5073218;28;20473;-84
2021/05/14 04:51:50;;;;;;;1.63;1.53;;;;;;;9.61;85.62;153828.34;5072176;28;20445;-84
2021/05/14 04:54:25;;;;;;;2.70;1.60;;;;;;;9.80;85.09;153876.22;5072900;28;20450;-85
2021/05/14 04:57:00;;;;;;;2.07;1.83;;;;;;;10.11;84.67;153955.19;5071786;28;20438;-86
2021/05/14 04:59:36;;;;;;;2.30;1.60;;;;;;;10.35;83.05;154017.38;5051934;28;20459;-87
2021/05/14 05:02:12;;;;;;;2.00;1.70;;;;;;;10.56;82.64;154070.44;5052223;28;20445;-88
2021/05/14 05:04:47;;;;;;;1.77;1.67;;;;;;;10.75;81.19;154120.91;5052314;28;20449;-88
2021/05/14 05:07:22;;;;;;;3.30;1.90;;;;;;;10.96;79.56;154174.06;5052374;28;20783;-88
2021/05/14 05:09:57;;;;;;;1.63;1.53;;;;;;;11.03;80.46;154192.16;5036882;28;20477;-88
2021/05/14 05:12:33;;;;;;;2.10;1.47;;;;;;;11.13;78.67;154218.06;5052573;28;20443;-88
2021/05/14 05:15:10;;;;;;;1.70;1.60;;;;;;;11.28;77.41;154255.66;5086485;28;20465;-88
2021/05/14 05:17:45;;;;;;;1.90;1.67;;;;;;;11.46;77.56;154302.28;5092443;28;20441;-88
2021/05/14 05:20:21;;;;;;;2.57;2.00;;;;;;;11.69;74.93;154360.63;5092843;28;20433;-88
2021/05/14 05:22:56;;;;;;;2.90;2.23;;;;;;;11.91;75.73;154417.66;5092436;28;20444;-88
2021/05/14 05:25:31;;;;;;;2.90;2.70;;;;;;;12.11;74.82;154470.81;5092836;28;20451;-89
2021/05/14 05:28:06;;;;;;;1.80;1.70;;;;;;;12.19;73.59;154491.56;5062545;28;20458;-89
2021/05/14 05:30:42;;;;;;;2.40;1.80;;;;;;;12.21;74.20;154495.41;5053784;28;20433;-90
2021/05/14 05:33:17;;;;;;;2.43;1.60;;;;;;;12.27;73.67;154511.00;5072293;28;20511;-88
2021/05/14 05:35:54;;;;;;;1.40;1.30;;;;;;;12.53;72.87;154578.41;5089343;28;20440;-88
2021/05/14 05:38:30;;;;;;;1.80;1.70;;;;;;;12.84;71.86;154657.50;5057801;28;20948;-89
2021/05/14 05:41:05;;;;;;;1.50;1.40;;;;;;;13.06;72.46;154714.59;5072482;28;20938;-88
2021/05/14 05:43:40;;;;;;;1.83;1.23;;;;;;;13.24;70.42;154761.34;5072210;28;20444;-88
2021/05/14 05:46:16;;;;;;;1.60;1.40;;;;;;;13.40;69.25;154802.88;5072190;28;20808;-88
2021/05/14 05:48:51;;;;;;;1.47;1.27;;;;;;;13.61;69.20;154854.81;5073029;28;20465;-88
2021/05/14 05:51:27;;;;;;;1.80;1.70;;;;;;;13.89;67.44;154927.50;5073934;28;20814;-89
2021/05/14 05:54:02;;;;;;;4.20;1.33;;;;;;;13.97;68.33;154949.56;5072900;28;20438;-89
2021/05/14 05:56:37;;;;;;;1.30;1.20;;;;;;;14.20;67.11;155006.66;5089416;28;20435;-89
2021/05/14 05:59:16;;;;;;;3.80;1.20;;;;;;;14.47;66.25;155078.16;5072497;28;20467;-89
2021/05/14 06:01:52;;;;;;;1.30;1.17;;;;;;;14.73;65.32;155143.09;5072444;28;20518;-89
2021/05/14 06:04:27;;;;;;;1.63;1.27;;;;;;;14.89;64.35;155185.97;5072890;28;20453;-90
2021/05/14 06:07:02;;;;;;;1.93;1.03;;;;;;;15.25;63.78;155279.50;5057712;28;20441;-90
2021/05/14 06:09:37;;;;;;;1.87;1.00;;;;;;;15.37;63.20;155309.41;5077244;28;20465;-89
2021/05/14 06:12:12;;;;;;;1.60;1.30;;;;;;;15.38;62.49;155311.97;5072012;28;20438;-89
2021/05/14 06:14:49;;;;;;;1.30;1.10;;;;;;;15.49;60.90;155340.63;5060762;28;20915;-90
2021/05/14 06:17:25;;;;;;;1.63;0.90;;;;;;;15.65;62.88;155382.22;5078044;28;20428;-90
2021/05/14 06:20:02;;;;;;;1.07;0.90;;;;;;;15.82;61.14;155425.13;5076368;28;20520;-90
2021/05/14 06:22:38;;;;;;;1.33;1.00;;;;;;;16.01;60.08;155474.56;5077205;28;20502;-90
2021/05/14 06:25:14;;;;;;;1.60;1.30;;;;;;;16.21;60.26;155525.25;5077484;28;20434;-91
2021/05/14 06:27:50;;;;;;;1.80;0.90;;;;;;;16.33;59.22;155557.78;5076967;28;20438;-90
2021/05/14 06:30:25;;;;;;;0.97;0.70;;;;;;;16.53;57.21;155608.53;5076453;28;20479;-90
2021/05/14 06:33:03;;;;;;;1.37;0.90;;;;;;;16.53;59.50;155608.53;5061372;28;20459;-90
2021/05/14 06:35:39;;;;;;;1.03;0.60;;;;;;;16.73;56.78;155660.53;5060374;28;20919;-90
2021/05/14 06:38:14;;;;;;;1.13;0.50;;;;;;;17.11;54.62;155756.84;5061515;28;20433;-90
2021/05/14 06:40:50;;;;;;;0.97;0.70;;;;;;;17.12;56.25;155759.47;5060329;28;20429;-90
2021/05/14 06:43:25;;;;;;;1.03;0.57;;;;;;;17.22;53.75;155786.78;5041056;28;20446;-90
2021/05/14 06:46:01;;;;;;;1.60;0.70;;;;;;;16.97;56.47;155723.00;5040558;28;20447;-90
2021/05/14 06:48:37;;;;;;;1.00;0.60;;;;;;;16.96;53.39;155720.44;5055915;28;20423;-90
2021/05/14 06:51:12;;;;;;;2.20;0.60;;;;;;;17.45;54.98;155845.34;5072812;28;20446;-90
2021/05/14 06:53:50;;;;;;;1.20;0.70;;;;;;;17.98;53.08;155983.38;5066645;28;20422;-90
2021/05/14 06:56:26;;;;;;;0.80;0.70;;;;;;;18.36;54.30;156081.06;5075345;28;20438;-90
2021/05/14 06:59:02;;;;;;;1.20;0.90;;;;;;;18.17;52.22;156032.88;5080118;28;20545;-90
2021/05/14 07:01:37;;;;;;;2.13;1.10;;;;;;;18.34;52.05;156074.56;5083920;28;20410;-90
2021/05/14 07:04:13;;;;;;;1.10;0.80;;;;;;;17.98;50.37;155983.38;5075538;28;20445;-90
2021/05/14 07:06:48;;;;;;;1.17;0.80;;;;;;;18.21;51.81;156043.28;5075348;28;20414;-91
2021/05/14 07:09:23;;;;;;;1.00;0.90;;;;;;;18.21;51.70;156042.00;5072548;28;20470;-91
2021/05/14 07:11:58;;;;;;;0.97;0.60;;;;;;;17.73;52.20;155918.31;5054655;28;20934;-90
2021/05/14 07:14:34;;;;;;;1.53;0.80;;;;;;;18.02;52.45;155992.53;5065338;28;20446;-90
2021/05/14 07:17:09;;;;;;;0.80;0.70;;;;;;;18.30;55.01;156064.13;5063271;28;20482;-90
2021/05/14 07:19:45;;;;;;;0.93;0.60;;;;;;;17.90;50.58;155962.56;5053710;28;20501;-89
2021/05/14 07:22:20;;;;;;;1.47;0.90;;;;;;;17.19;51.28;155777.66;5054429;28;20443;-89
2021/05/14 07:24:55;;;;;;;2.00;1.53;;;;;;;16.66;52.59;155642.34;5071579;28;20446;-89
2021/05/14 07:27:30;;;;;;;0.70;0.60;;;;;;;16.67;53.94;155644.97;5076631;28;20519;-89
2021/05/14 07:30:06;;;;;;;1.00;0.60;;;;;;;16.73;52.79;155660.53;5075116;28;20470;-89
2021/05/14 07:32:42;;;;;;;0.70;0.50;;;;;;;16.40;55.69;155574.66;5076669;28;20525;-88
2021/05/14 07:35:18;;;;;;;0.87;0.60;;;;;;;16.24;55.39;155533.06;5071010;28;20446;-89
2021/05/14 07:37:53;;;;;;;1.43;1.27;;;;;;;16.05;56.42;155483.63;5073985;28;20844;-88
2021/05/14 07:40:28;;;;;;;1.33;1.00;;;;;;;15.99;55.72;155469.31;5066970;28;20857;-88
2021/05/14 07:43:04;;;;;;;2.37;1.17;;;;;;;15.75;57.61;155408.22;5075384;28;20429;-89
2021/05/14 07:45:39;;;;;;;1.60;1.10;;;;;;;16.63;55.11;155634.53;5073853;28;20803;-90
2021/05/14 07:48:20;;;;;;;1.50;1.30;;;;;;;17.06;55.17;155745.13;5074521;28;20441;-90
2021/05/14 07:50:56;;;;;;;1.57;1.20;;;;;;;17.44;52.15;155844.06;5073985;28;20429;-90
2021/05/14 07:53:31;;;;;;;1.33;1.17;;;;;;;17.26;54.20;155795.91;5075007;28;20448;-89
2021/05/14 07:56:08;;;;;;;1.73;1.40;;;;;;;16.98;55.66;155725.63;5075454;28;20449;-90
2021/05/14 07:58:43;;;;;;;2.03;1.37;;;;;;;16.72;55.21;155656.66;5070767;28;20810;-90
2021/05/14 08:01:19;;;;;;;1.57;1.47;;;;;;;16.39;56.12;155572.06;5056670;28;20520;-91
2021/05/14 08:03:54;;;;;;;2.03;1.30;;;;;;;16.12;56.91;155503.16;5062999;28;20453;-89
2021/05/14 08:06:30;;;;;;;2.03;1.50;;;;;;;16.21;57.58;155525.25;5076879;28;20427;-91
2021/05/14 08:09:08;;;;;;;1.83;1.20;;;;;;;16.08;56.54;155491.44;5095257;28;20448;-89
2021/05/14 08:11:43;;;;;;;1.20;0.90;;;;;;;15.80;57.20;155421.25;5076424;28;20834;-89
2021/05/14 08:14:18;;;;;;;1.47;1.33;;;;;;;15.69;58.49;155391.34;5093897;28;20522;-89
2021/05/14 08:16:54;;;;;;;2.07;0.90;;;;;;;15.69;57.40;155392.66;5076602;28;20438;-89
2021/05/14 08:19:29;;;;;;;2.80;1.30;;;;;;;15.43;58.59;155323.72;5094505;28;20437;-89
2021/05/14 08:22:05;;;;;;;1.23;1.03;;;;;;;15.54;59.54;155352.38;5061337;28;20442;-90
2021/05/14 08:24:40;;;;;;;1.40;1.00;;;;;;;15.98;57.64;155465.44;5073758;28;20443;-89
2021/05/14 08:27:15;;;;;;;2.80;1.10;;;;;;;16.24;56.24;155534.34;5082032;28;20816;-90
2021/05/14 08:29:52;;;;;;;1.37;0.80;;;;;;;16.52;54.22;155605.88;5070284;28;20820;-89
2021/05/14 08:35:21;;;;;;;0.80;0.70;;;;;;;17.14;54.66;155765.97;5085171;28;20486;-90
2021/05/14 08:38:11;;;;;;;1.37;0.77;;;;;;;16.48;52.64;155594.16;5103948;28;20446;-90
2021/05/14 08:40:51;;;;;;;0.70;0.50;;;;;;;16.24;52.83;155533.06;5066913;28;20431;-90
2021/05/14 08:43:26;;;;;;;1.17;0.77;;;;;;;16.43;52.88;155582.47;5062669;28;20536;-90
2021/05/14 08:46:02;;;;;;;1.10;0.50;;;;;;;16.92;51.92;155710.00;5060573;28;20431;-90
2021/05/14 08:48:38;;;;;;;0.90;0.60;;;;;;;17.55;50.46;155871.47;5061497;28;20981;-90
2021/05/14 08:51:14;;;;;;;1.20;0.63;;;;;;;17.93;47.90;155970.38;5060695;28;20511;-90
2021/05/14 08:53:50;;;;;;;1.63;0.60;;;;;;;17.84;48.33;155946.97;5061292;28;20927;-91
2021/05/14 08:56:25;;;;;;;0.60;0.50;;;;;;;17.64;48.36;155894.84;5060522;28;20501;-89
2021/05/14 08:59:00;;;;;;;0.87;0.53;;;;;;;17.94;51.36;155971.69;5044752;28;20568;-90
2021/05/14 09:01:38;;;;;;;1.07;0.63;;;;;;;17.90;48.17;155962.56;5056273;28;20461;-88
2021/05/14 09:04:19;;;;;;;1.03;0.70;;;;;;;17.76;53.52;155924.81;5075346;28;20433;-88
2021/05/14 09:06:54;;;;;;;1.10;0.57;;;;;;;17.77;50.91;155928.69;5094299;28;20434;-89
2021/05/14 09:09:30;;;;;;;1.20;0.60;;;;;;;17.86;50.79;155952.16;5075911;28;20862;-89
2021/05/14 09:12:07;;;;;;;3.40;0.90;;;;;;;17.93;49.24;155970.38;5094176;28;20502;-89
2021/05/14 09:14:44;;;;;;;1.20;0.70;;;;;;;17.99;50.67;155986.00;5094102;28;20528;-89
2021/05/14 09:17:20;;;;;;;1.23;0.60;;;;;;;18.10;53.04;156014.66;5060724;28;21015;-89
2021/05/14 09:19:55;;;;;;;1.07;0.77;;;;;;;18.51;44.87;156118.88;5052881;28;20540;-89
2021/05/14 09:22:37;;;;;;;1.10;0.60;;;;;;;18.63;50.12;156150.16;5076663;28;20467;-89
2021/05/14 09:25:13;;;;;;;1.23;0.80;;;;;;;18.71;50.08;156171.00;5073486;28;20438;-89
2021/05/14 09:27:47;;;;;;;1.90;0.60;;;;;;;18.70;45.06;156168.38;5057220;28;20434;-88
2021/05/14 09:30:23;;;;;;;1.17;0.70;;;;;;;18.62;45.43;156147.53;5066076;28;20468;-88
2021/05/14 09:32:58;;;;;;;2.33;2.13;;;;;;;18.33;44.80;156071.94;5077505;28;20460;-88
2021/05/14 09:35:33;;;;;;;1.90;0.80;;;;;;;17.78;48.25;155931.31;5075461;28;20886;-88
2021/05/14 09:38:09;;;;;;;1.67;0.73;;;;;;;17.64;50.28;155894.84;5076154;28;20449;-87
2021/05/14 09:40:45;;;;;;;1.10;0.60;;;;;;;17.28;55.06;155801.09;5101020;28;20430;-89
2021/05/14 09:43:23;;;;;;;0.70;0.50;;;;;;;17.20;52.78;155780.28;5112217;28;20507;-88
2021/05/14 09:45:58;;;;;;;1.23;0.60;;;;;;;17.09;52.16;155751.63;5100688;28;20508;-88
2021/05/14 09:48:54;;;;;;;1.03;0.67;;;;;;;16.60;57.76;155626.72;5098523;28;20437;-89
2021/05/14 09:51:30;;;;;;;1.40;0.80;;;;;;;16.13;57.98;155504.44;5097634;28;20410;-89
2021/05/14 09:54:19;;;;;;;0.70;0.60;;;;;;;15.70;59.34;155395.22;5059636;28;20839;-88
2021/05/14 09:57:25;;;;;;;2.17;1.60;;;;;;;15.50;58.02;155343.25;5061134;28;20445;-88
2021/05/14 10:00:03;;;;;;;2.20;1.00;;;;;;;15.40;59.57;155315.91;5075914;28;20793;-88
2021/05/14 10:02:41;;;;;;;1.20;0.87;;;;;;;15.54;59.74;155352.38;5064703;28;20449;-87
2021/05/14 10:05:16;;;;;;;0.80;0.70;;;;;;;15.53;60.00;155351.06;5075704;28;20450;-87
2021/05/14 10:07:52;;;;;;;2.37;0.90;;;;;;;15.50;58.56;155341.94;5060883;28;20441;-87
2021/05/14 10:10:27;;;;;;;4.43;1.50;;;;;;;15.52;59.65;155348.44;5086429;28;20504;-89
2021/05/14 10:13:03;;;;;;;1.30;0.80;;;;;;;15.14;59.25;155250.91;5075073;28;20442;-89
2021/05/14 10:15:39;;;;;;;3.90;1.80;;;;;;;15.01;61.95;155217.13;5078607;28;20814;-89
2021/05/14 10:18:17;;;;;;;2.70;1.67;;;;;;;15.15;63.04;155252.22;5079650;28;20448;-89
2021/05/14 10:20:55;;;;;;;3.37;2.07;;;;;;;14.95;62.99;155200.25;5096707;28;20409;-90
2021/05/14 10:23:30;;;;;;;3.17;2.50;;;;;;;15.13;65.51;155247.03;5097705;28;20539;-89
2021/05/14 10:26:06;;;;;;;7.93;2.83;;;;;;;15.34;65.57;155301.59;5079991;28;20436;-89
2021/05/14 10:28:45;;;;;;;1.53;1.10;;;;;;;15.31;66.92;155293.78;5097574;28;20464;-90
2021/05/14 10:31:23;;;;;;;1.80;1.20;;;;;;;15.31;66.21;155293.78;5096526;28;20920;-95
2021/05/14 10:33:58;;;;;;;1.40;1.10;;;;;;;15.26;66.79;155280.81;5054398;28;20442;-93
2021/05/14 10:36:42;;;;;;;1.70;1.20;;;;;;;15.07;71.21;155231.41;5060522;28;20838;-94
2021/05/14 10:39:21;;;;;;;0.80;0.77;;;;;;;15.00;73.65;155213.25;5088544;28;20437;-93
2021/05/14 10:42:00;;;;;;;1.03;0.70;;;;;;;14.75;69.43;155148.25;5084332;28;20482;-95
2021/05/14 10:44:44;;;;;;;1.80;0.90;;;;;;;14.71;74.47;155137.91;5085569;28;20448;-93
2021/05/14 10:47:44;;;;;;;0.70;0.63;;;;;;;14.54;74.09;155096.31;5077300;28;20429;-92
2021/05/14 10:50:38;;;;;;;1.40;0.70;;;;;;;14.63;80.59;155118.41;5060593;28;20465;-93
2021/05/14 10:53:29;;;;;;;1.00;0.70;;;;;;;14.55;73.74;155098.94;5060687;28;20449;-93
2021/05/14 10:56:49;;;;;;;2.43;1.70;;;;;;;14.46;68.25;155074.25;5058424;28;20532;-92
2021/05/14 10:59:33;;;;;;;1.23;1.10;;;;;;;14.27;69.66;155026.13;5065940;28;20491;-92
2021/05/14 11:02:29;;;;;;;2.60;1.57;;;;;;;14.32;67.90;155037.91;5059604;28;20445;-92
2021/05/14 11:05:27;;;;;;;1.00;0.77;;;;;;;14.41;64.03;155061.25;5059334;28;20778;-91
2021/05/14 11:08:02;;;;;;;0.93;0.80;;;;;;;14.69;67.63;155132.72;5076884;28;20492;-90
2021/05/14 11:10:39;;;;;;;0.70;0.60;;;;;;;14.57;65.06;155102.81;5076553;28;20470;-91
2021/05/14 11:13:34;;;;;;;1.40;0.80;;;;;;;14.72;64.27;155141.78;5044227;28;20443;-90
2021/05/14 11:16:40;;;;;;;1.50;0.90;;;;;;;14.74;70.18;155145.69;5042751;28;20800;-90
2021/05/14 11:19:22;;;;;;;1.90;0.80;;;;;;;14.72;62.68;155140.50;5076413;28;20405;-90
2021/05/14 11:22:11;;;;;;;0.80;0.60;;;;;;;14.63;64.28;155118.41;5075800;28;20441;-89
2021/05/14 11:24:49;;;;;;;1.67;1.00;;;;;;;14.81;64.22;155165.19;5058124;28;20758;-89
2021/05/14 11:27:28;;;;;;;0.90;0.70;;;;;;;14.80;67.21;155161.31;5042764;28;20580;-89
2021/05/14 11:30:06;;;;;;;1.10;0.70;;;;;;;15.01;62.89;155215.88;5065063;28;20553;-89
2021/05/14 11:32:41;;;;;;;3.03;0.80;;;;;;;15.03;64.14;155221.03;5078102;28;20529;-90
2021/05/14 11:35:19;;;;;;;1.57;0.73;;;;;;;15.02;63.93;155218.44;5095829;28;20838;-89
2021/05/14 11:37:56;;;;;;;0.90;0.80;;;;;;;14.77;59.69;155154.81;5074701;28;20440;-89
2021/05/14 11:40:33;;;;;;;1.10;1.00;;;;;;;14.80;60.06;155161.31;5078282;28;20482;-89
2021/05/14 11:43:11;;;;;;;0.90;0.70;;;;;;;14.91;64.25;155191.16;5096123;28;20780;-89
2021/05/14 11:45:47;;;;;;;2.00;0.70;;;;;;;15.28;65.83;155286.00;5077541;28;20434;-89
2021/05/14 11:48:23;;;;;;;0.93;0.70;;;;;;;15.18;63.41;155260.00;5082794;28;20427;-89
2021/05/14 11:50:59;;;;;;;0.90;0.70;;;;;;;15.31;62.49;155293.78;5057596;28;20479;-86
2021/05/14 11:53:34;;;;;;;1.90;0.80;;;;;;;15.42;61.91;155322.41;5077483;28;20448;-87
2021/05/14 11:56:09;;;;;;;1.00;0.70;;;;;;;15.10;60.56;155239.22;5072417;28;20443;-88
2021/05/14 11:58:44;;;;;;;2.90;0.70;;;;;;;15.14;60.94;155249.66;5075268;28;20883;-89
2021/05/14 12:01:22;;;;;;;1.03;0.50;;;;;;;15.05;60.23;155226.22;5072045;28;20827;-88
2021/05/14 12:04:00;;;;;;;0.90;0.60;;;;;;;15.29;60.97;155288.63;5071889;28;20431;-89
2021/05/14 12:06:46;;;;;;;0.70;0.50;;;;;;;15.27;58.74;155283.44;5091407;28;20832;-89
2021/05/14 12:09:21;;;;;;;0.90;0.60;;;;;;;15.32;59.02;155296.41;5084226;28;20471;-88
2021/05/14 12:11:56;;;;;;;1.13;0.60;;;;;;;15.24;59.32;155275.63;5072256;28;20439;-89
2021/05/14 12:14:32;;;;;;;1.60;0.97;;;;;;;15.38;59.22;155311.97;5087733;28;20439;-89
2021/05/14 12:17:07;;;;;;;1.87;1.10;;;;;;;15.36;60.99;155306.78;5067077;28;20431;-90
2021/05/14 12:19:46;;;;;;;1.20;0.80;;;;;;;15.25;59.49;155279.50;5054400;28;20935;-89